createdAt,value
2022-11-29T00:03:00.570Z,11.77
2022-11-29T00:06:07.827Z,11.30
2022-11-29T00:09:12.610Z,10.07
2022-11-29T00:12:14.328Z,10.70
2022-11-29T00:15:16.030Z,10.77
2022-11-29T00:18:17.618Z,10.20
2022-11-29T00:21:19.233Z,10.23
2022-11-29T00:24:21.183Z,10.90
2022-11-29T00:27:22.827Z,11.00
2022-11-29T00:30:27.342Z,10.70
2022-11-29T00:33:29.216Z,10.00
2022-11-29T00:36:31.082Z,10.17
2022-11-29T00:39:32.784Z,10.33
2022-11-29T00:42:34.697Z,9.63
2022-11-29T00:45:36.421Z,9.03
2022-11-29T00:48:38.580Z,9.80
2022-11-29T00:51:40.209Z,9.83
2022-11-29T00:54:42.176Z,10.07
2022-11-29T00:57:44.120Z,9.73
2022-11-29T01:00:46.128Z,9.80
2022-11-29T01:03:48.398Z,10.20
2022-11-29T01:06:53.295Z,10.83
2022-11-29T01:09:54.914Z,11.40
2022-11-29T01:12:56.538Z,10.93
2022-11-29T01:15:58.768Z,11.90
2022-11-29T01:19:00.536Z,12.17
2022-11-29T01:22:02.196Z,11.23
2022-11-29T01:25:05.452Z,10.90
2022-11-29T01:28:07.089Z,11.27
2022-11-29T01:31:11.213Z,10.70
2022-11-29T01:34:12.896Z,10.73
2022-11-29T01:37:14.520Z,9.43
2022-11-29T01:40:16.255Z,9.10
2022-11-29T01:43:18.681Z,9.10
2022-11-29T01:46:20.457Z,9.77
2022-11-29T01:49:33.832Z,9.17
2022-11-29T01:52:35.708Z,9.00
2022-11-29T01:55:40.400Z,8.93
2022-11-29T01:58:44.876Z,8.60
2022-11-29T02:01:46.618Z,9.37
2022-11-29T02:04:49.412Z,8.97
2022-11-29T02:07:54.884Z,8.93
2022-11-29T02:11:12.753Z,9.33
2022-11-29T02:14:22.795Z,8.63
2022-11-29T02:17:27.423Z,9.23
2022-11-29T02:20:39.992Z,9.03
2022-11-29T02:23:44.446Z,9.17
2022-11-29T02:26:54.965Z,9.43
2022-11-29T02:29:56.672Z,8.60
2022-11-29T02:33:10.792Z,9.83
2022-11-29T02:36:31.289Z,9.40
2022-11-29T02:39:45.672Z,10.53
2022-11-29T02:43:24.820Z,10.57
2022-11-29T02:46:38.486Z,10.87
2022-11-29T02:50:24.362Z,10.93
2022-11-29T02:53:49.771Z,11.67
2022-11-29T02:57:13.170Z,9.93
2022-11-29T03:00:24.866Z,11.00
2022-11-29T03:03:58.061Z,11.30
2022-11-29T03:07:25.686Z,10.37
2022-11-29T03:10:39.389Z,11.03
2022-11-29T03:14:07.475Z,11.83
2022-11-29T03:17:30.862Z,11.93
2022-11-29T03:20:38.601Z,11.63
2022-11-29T03:24:11.410Z,11.03
2022-11-29T03:27:21.011Z,11.07
2022-11-29T03:30:22.940Z,11.27
2022-11-29T03:33:59.001Z,11.53
2022-11-29T03:37:25.112Z,11.37
2022-11-29T03:40:40.108Z,11.17
2022-11-29T03:44:22.520Z,10.60
2022-11-29T03:47:30.696Z,11.23
2022-11-29T03:50:41.296Z,11.60
2022-11-29T03:53:55.328Z,11.33
2022-11-29T03:56:57.329Z,10.20
2022-11-29T04:00:07.263Z,11.47
2022-11-29T04:03:32.134Z,11.03
2022-11-29T04:07:01.767Z,11.17
2022-11-29T04:10:20.363Z,9.73
2022-11-29T04:13:35.433Z,9.50
2022-11-29T04:17:16.885Z,9.33
2022-11-29T04:20:55.368Z,11.70
2022-11-29T04:24:09.001Z,10.63
2022-11-29T04:27:36.445Z,9.70
2022-11-29T04:31:12.225Z,9.70
2022-11-29T04:34:44.109Z,13.97
2022-11-29T04:38:03.243Z,11.00
2022-11-29T04:41:20.082Z,10.80
2022-11-29T04:44:34.183Z,9.70
2022-11-29T04:48:13.702Z,11.37
2022-11-29T04:51:58.250Z,9.23
2022-11-29T04:55:33.039Z,8.63
2022-11-29T04:58:59.320Z,8.83
2022-11-29T05:02:10.118Z,8.93
2022-11-29T05:05:34.938Z,8.43
2022-11-29T05:08:51.893Z,8.27
2022-11-29T05:12:22.943Z,8.47
2022-11-29T05:15:36.617Z,9.90
2022-11-29T05:19:20.274Z,11.00
2022-11-29T05:22:29.048Z,8.60
2022-11-29T05:25:55.690Z,9.90
2022-11-29T05:29:00.014Z,11.17
2022-11-29T05:32:32.544Z,10.67
2022-11-29T05:35:43.362Z,10.23
2022-11-29T05:39:14.547Z,15.47
2022-11-29T05:42:37.946Z,14.40
2022-11-29T05:45:56.896Z,12.13
2022-11-29T05:49:17.517Z,10.77
2022-11-29T05:52:44.758Z,10.23
2022-11-29T05:56:02.565Z,11.07
2022-11-29T05:59:09.658Z,10.93
2022-11-29T06:02:26.914Z,11.40
2022-11-29T06:05:47.740Z,11.67
2022-11-29T06:08:59.902Z,11.37
2022-11-29T06:12:16.926Z,10.80
2022-11-29T06:15:30.032Z,10.67
2022-11-29T06:18:42.177Z,13.07
2022-11-29T06:22:17.009Z,11.40
2022-11-29T06:25:44.260Z,10.40
2022-11-29T06:28:58.103Z,9.17
2022-11-29T06:32:40.151Z,8.87
2022-11-29T06:36:07.287Z,9.67
2022-11-29T06:39:10.707Z,8.93
2022-11-29T06:42:12.445Z,9.43
2022-11-29T06:45:15.322Z,9.90
2022-11-29T06:48:25.738Z,9.70
2022-11-29T06:51:42.756Z,9.60
2022-11-29T06:55:12.311Z,10.10
2022-11-29T06:58:48.907Z,10.47
2022-11-29T07:02:00.916Z,8.80
2022-11-29T07:05:25.902Z,8.03
2022-11-29T07:08:27.856Z,8.53
2022-11-29T07:11:29.824Z,8.87
2022-11-29T07:14:31.657Z,9.20
2022-11-29T07:17:37.200Z,9.27
2022-11-29T07:21:14.802Z,9.10
2022-11-29T07:24:31.342Z,9.43
2022-11-29T07:28:06.641Z,10.50
2022-11-29T07:31:46.010Z,9.60
2022-11-29T07:35:01.469Z,9.23
2022-11-29T07:38:44.865Z,9.47
2022-11-29T07:42:01.327Z,8.43
2022-11-29T07:45:20.941Z,8.90
2022-11-29T07:48:22.622Z,9.33
2022-11-29T07:51:25.057Z,9.00
2022-11-29T07:54:26.764Z,9.23
2022-11-29T07:57:28.415Z,9.13
2022-11-29T08:00:30.056Z,11.03
2022-11-29T08:03:32.941Z,10.13
2022-11-29T08:06:36.203Z,12.13
2022-11-29T08:09:37.926Z,10.40
2022-11-29T08:12:45.046Z,10.93
2022-11-29T08:15:47.955Z,12.90
2022-11-29T08:18:53.794Z,10.43
2022-11-29T08:21:55.512Z,9.23
2022-11-29T08:24:58.022Z,9.53
2022-11-29T08:28:18.797Z,11.17
2022-11-29T08:31:21.223Z,11.00
2022-11-29T08:34:24.581Z,10.57
2022-11-29T08:37:26.202Z,11.60
2022-11-29T08:40:31.193Z,16.83
2022-11-29T08:43:33.611Z,10.73
2022-11-29T08:46:53.705Z,9.03
2022-11-29T08:50:01.287Z,8.43
2022-11-29T08:53:21.464Z,8.33
2022-11-29T08:57:10.080Z,8.27
2022-11-29T08:59:44.839Z,7.97
2022-11-29T09:02:48.546Z,7.07
2022-11-29T09:05:50.731Z,7.97
2022-11-29T09:08:56.215Z,8.97
2022-11-29T09:11:57.876Z,11.33
2022-11-29T09:15:04.367Z,11.50
2022-11-29T09:18:06.285Z,12.10
2022-11-29T09:21:17.479Z,11.03
2022-11-29T09:24:20.192Z,9.87
2022-11-29T09:27:21.874Z,13.40
2022-11-29T09:30:23.981Z,11.67
2022-11-29T09:33:25.753Z,13.00
2022-11-29T09:36:29.556Z,12.60
2022-11-29T09:39:31.216Z,12.37
2022-11-29T09:42:57.844Z,11.77
2022-11-29T09:46:22.470Z,12.73
2022-11-29T09:49:39.711Z,13.30
2022-11-29T09:53:18.098Z,13.13
2022-11-29T09:56:42.338Z,11.17
2022-11-29T09:59:49.662Z,12.33
2022-11-29T10:02:59.323Z,11.93
2022-11-29T10:06:23.875Z,11.17
2022-11-29T10:10:12.920Z,10.60
2022-11-29T10:13:31.784Z,11.17
2022-11-29T10:16:49.464Z,11.37
2022-11-29T10:19:59.126Z,11.17
2022-11-29T10:23:42.104Z,10.27
2022-11-29T10:26:44.106Z,12.80
2022-11-29T10:29:50.169Z,11.10
2022-11-29T10:32:57.620Z,10.83
2022-11-29T10:36:04.139Z,11.67
2022-11-29T10:39:28.811Z,11.10
2022-11-29T10:42:49.251Z,10.47
2022-11-29T10:45:55.991Z,10.97
2022-11-29T10:49:04.695Z,10.30
2022-11-29T10:52:19.394Z,11.83
2022-11-29T10:55:22.739Z,11.57
2022-11-29T10:58:28.569Z,10.87
2022-11-29T11:01:33.616Z,10.87
2022-11-29T11:04:43.104Z,10.57
2022-11-29T11:07:47.281Z,11.30
2022-11-29T11:10:58.636Z,12.03
2022-11-29T11:14:06.636Z,10.70
2022-11-29T11:17:32.596Z,10.93
2022-11-29T11:20:39.691Z,11.23
2022-11-29T11:23:59.069Z,11.77
2022-11-29T11:27:01.486Z,12.87
2022-11-29T11:30:06.708Z,13.20
2022-11-29T11:33:19.239Z,12.93
2022-11-29T11:36:20.868Z,13.13
2022-11-29T11:39:23.604Z,12.97
2022-11-29T11:42:40.319Z,12.07
2022-11-29T11:45:42.372Z,10.53
2022-11-29T11:48:44.065Z,9.87
2022-11-29T11:51:45.803Z,9.83
2022-11-29T11:54:55.054Z,9.47
2022-11-29T11:58:16.495Z,10.90
2022-11-29T12:01:30.701Z,11.07
2022-11-29T12:04:35.681Z,11.07
2022-11-29T12:11:16.039Z,12.10
2022-11-29T12:14:28.427Z,11.20
2022-11-29T12:17:46.131Z,12.03
2022-11-29T12:21:17.496Z,11.97
2022-11-29T12:24:29.595Z,12.23
2022-11-29T12:27:31.873Z,10.67
2022-11-29T12:30:35.279Z,10.93
2022-11-29T12:33:55.466Z,10.57
2022-11-29T12:37:02.508Z,9.83
2022-11-29T12:40:39.633Z,10.67
2022-11-29T12:43:59.986Z,9.07
2022-11-29T12:47:38.164Z,9.17
2022-11-29T12:51:27.263Z,10.20
2022-11-29T12:54:40.979Z,12.10
2022-11-29T12:57:53.327Z,12.43
2022-11-29T13:01:21.761Z,11.67
2022-11-29T13:04:50.927Z,11.67
2022-11-29T13:08:18.403Z,11.63
2022-11-29T13:11:29.126Z,12.37
2022-11-29T13:14:49.536Z,12.00
2022-11-29T13:18:13.064Z,11.97
2022-11-29T13:21:19.213Z,12.00
2022-11-29T13:24:45.494Z,11.50
2022-11-29T13:28:05.078Z,11.47
2022-11-29T13:31:12.161Z,12.00
2022-11-29T13:34:32.946Z,11.00
2022-11-29T13:37:57.720Z,11.07
2022-11-29T13:41:22.887Z,10.93
2022-11-29T13:44:39.264Z,12.03
2022-11-29T13:48:38.902Z,11.63
2022-11-29T13:51:41.317Z,10.77
2022-11-29T13:54:43.129Z,11.53
2022-11-29T13:58:20.426Z,11.97
2022-11-29T14:01:51.018Z,11.00
2022-11-29T14:04:52.988Z,12.17
2022-11-29T14:08:27.000Z,12.13
2022-11-29T14:12:06.042Z,13.53
2022-11-29T14:15:21.698Z,14.77
2022-11-29T14:18:40.573Z,13.90
2022-11-29T14:22:06.409Z,14.40
2022-11-29T14:25:49.791Z,14.90
2022-11-29T14:28:44.819Z,14.23
2022-11-29T14:31:53.776Z,14.20
2022-11-29T14:35:12.416Z,13.90
2022-11-29T14:38:30.679Z,12.37
2022-11-29T14:41:55.535Z,12.83
2022-11-29T14:45:01.067Z,13.03
2022-11-29T14:48:03.243Z,12.50
2022-11-29T14:51:17.675Z,12.73
2022-11-29T14:54:20.449Z,11.83
2022-11-29T14:57:46.996Z,12.17
2022-11-29T15:00:48.581Z,12.60
2022-11-29T15:03:50.990Z,13.20
2022-11-29T15:06:56.580Z,14.13
2022-11-29T15:10:02.623Z,13.87
2022-11-29T15:13:04.892Z,12.90
2022-11-29T15:16:31.034Z,13.43
2022-11-29T15:20:00.997Z,13.50
2022-11-29T15:23:07.171Z,12.23
2022-11-29T15:26:18.650Z,13.23
2022-11-29T15:29:31.238Z,12.73
2022-11-29T15:32:33.305Z,14.27
2022-11-29T15:35:36.224Z,13.67
2022-11-29T15:38:43.859Z,13.40
2022-11-29T15:41:45.514Z,13.07
2022-11-29T15:44:48.770Z,12.73
2022-11-29T15:47:50.768Z,14.13
2022-11-29T15:51:03.730Z,13.77
2022-11-29T15:54:21.812Z,13.47
2022-11-29T15:57:35.552Z,14.80
2022-11-29T16:00:37.448Z,14.40
2022-11-29T16:03:43.353Z,13.93
2022-11-29T16:06:46.667Z,12.67
2022-11-29T16:10:04.679Z,14.30
2022-11-29T16:13:25.884Z,14.60
2022-11-29T16:16:28.782Z,12.47
2022-11-29T16:19:36.860Z,14.23
2022-11-29T16:22:39.980Z,13.57
2022-11-29T16:26:12.304Z,13.93
2022-11-29T16:29:21.575Z,14.23
2022-11-29T16:32:32.216Z,14.90
2022-11-29T16:35:34.861Z,14.70
2022-11-29T16:38:36.707Z,14.90
2022-11-29T16:41:39.152Z,15.53
2022-11-29T16:44:41.296Z,14.77
2022-11-29T16:47:47.491Z,15.10
2022-11-29T16:51:08.000Z,14.07
2022-11-29T16:54:22.141Z,13.57
2022-11-29T16:57:24.803Z,13.47
2022-11-29T17:00:33.420Z,13.87
2022-11-29T17:03:35.020Z,14.07
2022-11-29T17:06:39.972Z,15.03
2022-11-29T17:09:42.061Z,14.77
2022-11-29T17:12:48.192Z,15.93
2022-11-29T17:15:50.151Z,15.27
2022-11-29T17:18:56.974Z,14.70
2022-11-29T17:21:58.923Z,14.47
2022-11-29T17:25:00.601Z,14.80
2022-11-29T17:28:02.795Z,15.33
2022-11-29T17:31:21.950Z,14.67
2022-11-29T17:34:23.619Z,17.10
2022-11-29T17:37:25.466Z,15.60
2022-11-29T17:40:27.121Z,16.40
2022-11-29T17:43:31.112Z,15.67
2022-11-29T17:46:35.807Z,15.90
2022-11-29T17:49:37.416Z,16.57
2022-11-29T17:52:39.782Z,15.80
2022-11-29T17:55:44.462Z,16.67
2022-11-29T17:58:46.208Z,16.43
2022-11-29T18:01:48.075Z,15.73
2022-11-29T18:04:49.819Z,15.90
2022-11-29T18:08:04.160Z,15.40
2022-11-29T18:11:11.281Z,15.50
2022-11-29T18:14:15.319Z,15.83
2022-11-29T18:17:17.045Z,16.10
2022-11-29T18:20:18.674Z,17.50
2022-11-29T18:23:20.299Z,16.13
2022-11-29T18:26:25.935Z,14.87
2022-11-29T18:29:38.932Z,14.63
2022-11-29T18:32:41.050Z,15.07
2022-11-29T18:35:42.739Z,14.67
2022-11-29T18:38:47.914Z,15.90
2022-11-29T18:41:50.917Z,16.40
2022-11-29T18:44:57.423Z,16.07
2022-11-29T18:48:00.520Z,14.40
2022-11-29T18:51:04.536Z,15.27
2022-11-29T18:54:06.698Z,16.10
2022-11-29T18:57:08.420Z,18.30
2022-11-29T19:00:10.792Z,17.90
2022-11-29T19:03:12.703Z,17.10
2022-11-29T19:06:16.398Z,16.67
2022-11-29T19:09:23.815Z,17.70
2022-11-29T19:12:25.910Z,19.07
2022-11-29T19:15:27.599Z,18.27
2022-11-29T19:18:29.644Z,17.50
2022-11-29T19:21:34.196Z,17.67
2022-11-29T19:24:35.911Z,17.40
2022-11-29T19:27:43.253Z,16.00
2022-11-29T19:30:45.060Z,17.00
2022-11-29T19:33:47.273Z,15.57
2022-11-29T19:36:48.915Z,15.50
2022-11-29T19:39:51.642Z,16.93
2022-11-29T19:42:53.287Z,15.53
2022-11-29T19:45:58.757Z,15.43
2022-11-29T19:49:01.120Z,14.87
2022-11-29T19:52:03.005Z,14.23
2022-11-29T19:55:04.951Z,15.97
2022-11-29T19:58:09.436Z,14.97
2022-11-29T20:01:13.904Z,16.77
2022-11-29T20:04:16.798Z,15.80
2022-11-29T20:07:18.508Z,15.67
2022-11-29T20:10:20.402Z,15.43
2022-11-29T20:13:22.438Z,17.40
2022-11-29T20:16:24.874Z,25.20
2022-11-29T20:19:26.516Z,29.47
2022-11-29T20:22:28.215Z,25.33
2022-11-29T20:25:30.355Z,22.70
2022-11-29T20:28:32.046Z,21.83
2022-11-29T20:31:35.032Z,20.23
2022-11-29T20:34:38.398Z,18.23
2022-11-29T20:38:17.675Z,17.90
2022-11-29T20:41:30.149Z,18.30
2022-11-29T20:44:44.188Z,17.20
2022-11-29T20:47:55.439Z,17.20
2022-11-29T20:51:00.434Z,16.93
2022-11-29T20:54:02.058Z,16.00
2022-11-29T20:57:03.743Z,15.37
2022-11-29T21:00:11.280Z,15.87
2022-11-29T21:03:16.864Z,15.23
2022-11-29T21:06:18.619Z,16.60
2022-11-29T21:09:20.337Z,16.40
2022-11-29T21:12:22.271Z,15.73
2022-11-29T21:15:24.202Z,15.93
2022-11-29T21:18:28.599Z,16.73
2022-11-29T21:21:54.119Z,15.67
2022-11-29T21:25:01.836Z,16.27
2022-11-29T21:28:10.694Z,15.80
2022-11-29T21:31:14.737Z,16.27
2022-11-29T21:34:16.363Z,16.53
2022-11-29T21:37:21.572Z,16.77
2022-11-29T21:40:32.056Z,14.93
2022-11-29T21:44:04.496Z,16.03
2022-11-29T21:46:55.388Z,16.00
2022-11-29T21:50:00.047Z,14.33
2022-11-29T21:53:02.149Z,14.83
2022-11-29T21:56:09.735Z,15.20
2022-11-29T21:59:11.390Z,16.77
2022-11-29T22:02:13.088Z,15.23
2022-11-29T22:05:16.097Z,15.70
2022-11-29T22:08:18.148Z,14.57
2022-11-29T22:11:31.367Z,15.80
2022-11-29T22:14:35.873Z,15.20
2022-11-29T22:17:37.507Z,15.30
2022-11-29T22:20:39.176Z,15.80
2022-11-29T22:23:40.861Z,15.60
2022-11-29T22:26:43.635Z,15.73
2022-11-29T22:29:48.755Z,14.93
2022-11-29T22:32:50.426Z,16.30
2022-11-29T22:35:52.079Z,15.23
2022-11-29T22:38:53.967Z,15.80
2022-11-29T22:42:00.879Z,15.27
2022-11-29T22:45:04.055Z,15.30
2022-11-29T22:48:07.762Z,15.27
2022-11-29T22:51:15.201Z,15.17
2022-11-29T22:54:17.374Z,16.33
2022-11-29T22:57:19.005Z,16.07
2022-11-29T23:00:23.588Z,15.20
2022-11-29T23:03:25.228Z,16.53
2022-11-29T23:06:32.324Z,15.60
2022-11-29T23:09:34.043Z,15.67
2022-11-29T23:12:35.671Z,15.33
2022-11-29T23:15:37.272Z,13.30
2022-11-29T23:18:39.887Z,14.30
2022-11-29T23:21:41.738Z,14.87
2022-11-29T23:24:43.431Z,14.37
2022-11-29T23:27:45.180Z,16.33
2022-11-29T23:30:46.900Z,15.17
2022-11-29T23:33:49.191Z,15.07
2022-11-29T23:36:53.090Z,14.83
2022-11-29T23:39:55.046Z,14.93
2022-11-29T23:42:56.665Z,15.30
2022-11-29T23:45:58.870Z,15.47
2022-11-29T23:49:00.540Z,16.60
2022-11-29T23:52:14.471Z,15.33
2022-11-29T23:55:16.970Z,14.40
2022-11-29T23:58:18.820Z,14.53
